sensor_id;sensor_type;location;lat;lon;timestamp;P1;durP1;ratioP1;P2;durP2;ratioP2
61785;SDS011;47692;53.714;11.372;2023-05-24T00:00:39;16.77;;;3.03;;
61785;SDS011;47692;53.714;11.372;2023-05-24T00:03:05;11.40;;;2.83;;
61785;SDS011;47692;53.714;11.372;2023-05-24T00:05:31;17.67;;;2.90;;
61785;SDS011;47692;53.714;11.372;2023-05-24T00:07:57;15.38;;;2.85;;
61785;SDS011;47692;53.714;11.372;2023-05-24T00:10:23;16.58;;;3.38;;
61785;SDS011;47692;53.714;11.372;2023-05-24T00:12:48;9.13;;;2.40;;
61785;SDS011;47692;53.714;11.372;2023-05-24T00:15:13;13.23;;;2.70;;
61785;SDS011;47692;53.714;11.372;2023-05-24T00:17:39;14.88;;;3.42;;
61785;SDS011;47692;53.714;11.372;2023-05-24T00:20:10;15.00;;;2.80;;
61785;SDS011;47692;53.714;11.372;2023-05-24T00:22:36;28.02;;;3.90;;
61785;SDS011;47692;53.714;11.372;2023-05-24T00:25:05;14.85;;;2.80;;
61785;SDS011;47692;53.714;11.372;2023-05-24T00:27:31;14.60;;;2.90;;
61785;SDS011;47692;53.714;11.372;2023-05-24T00:29:57;14.50;;;3.20;;
61785;SDS011;47692;53.714;11.372;2023-05-24T00:32:22;16.35;;;3.20;;
61785;SDS011;47692;53.714;11.372;2023-05-24T00:34:47;19.52;;;3.30;;
61785;SDS011;47692;53.714;11.372;2023-05-24T00:37:13;13.85;;;2.83;;
61785;SDS011;47692;53.714;11.372;2023-05-24T00:39:38;16.45;;;3.40;;
61785;SDS011;47692;53.714;11.372;2023-05-24T00:42:04;20.75;;;3.72;;
61785;SDS011;47692;53.714;11.372;2023-05-24T00:44:29;22.73;;;3.85;;
61785;SDS011;47692;53.714;11.372;2023-05-24T00:46:55;14.75;;;3.97;;
61785;SDS011;47692;53.714;11.372;2023-05-24T00:49:21;16.40;;;3.55;;
61785;SDS011;47692;53.714;11.372;2023-05-24T00:51:47;20.23;;;4.00;;
61785;SDS011;47692;53.714;11.372;2023-05-24T00:54:15;21.08;;;3.63;;
61785;SDS011;47692;53.714;11.372;2023-05-24T00:56:41;16.80;;;4.63;;
61785;SDS011;47692;53.714;11.372;2023-05-24T00:59:07;15.75;;;3.75;;
61785;SDS011;47692;53.714;11.372;2023-05-24T01:01:33;15.70;;;3.95;;
61785;SDS011;47692;53.714;11.372;2023-05-24T01:03:58;27.08;;;3.72;;
61785;SDS011;47692;53.714;11.372;2023-05-24T01:06:24;22.73;;;4.22;;
61785;SDS011;47692;53.714;11.372;2023-05-24T01:09:01;15.10;;;3.80;;
61785;SDS011;47692;53.714;11.372;2023-05-24T01:15:08;17.42;;;3.35;;
61785;SDS011;47692;53.714;11.372;2023-05-24T01:17:53;21.38;;;3.92;;
61785;SDS011;47692;53.714;11.372;2023-05-24T01:20:29;20.70;;;3.95;;
61785;SDS011;47692;53.714;11.372;2023-05-24T01:25:46;20.90;;;3.45;;
61785;SDS011;47692;53.714;11.372;2023-05-24T01:28:19;17.40;;;3.40;;
61785;SDS011;47692;53.714;11.372;2023-05-24T01:30:46;17.70;;;4.53;;
61785;SDS011;47692;53.714;11.372;2023-05-24T01:33:12;22.40;;;4.70;;
61785;SDS011;47692;53.714;11.372;2023-05-24T01:35:37;20.02;;;4.13;;
61785;SDS011;47692;53.714;11.372;2023-05-24T01:38:06;20.27;;;4.78;;
61785;SDS011;47692;53.714;11.372;2023-05-24T01:40:32;23.77;;;4.47;;
61785;SDS011;47692;53.714;11.372;2023-05-24T01:43:02;20.88;;;5.28;;
61785;SDS011;47692;53.714;11.372;2023-05-24T01:45:39;23.55;;;4.13;;
61785;SDS011;47692;53.714;11.372;2023-05-24T01:48:18;24.33;;;4.35;;
61785;SDS011;47692;53.714;11.372;2023-05-24T01:51:07;20.85;;;4.32;;
61785;SDS011;47692;53.714;11.372;2023-05-24T01:53:38;23.88;;;4.68;;
61785;SDS011;47692;53.714;11.372;2023-05-24T01:56:10;21.52;;;5.07;;
61785;SDS011;47692;53.714;11.372;2023-05-24T01:58:37;25.80;;;5.13;;
61785;SDS011;47692;53.714;11.372;2023-05-24T02:01:05;24.73;;;5.18;;
61785;SDS011;47692;53.714;11.372;2023-05-24T02:03:32;28.98;;;4.78;;
61785;SDS011;47692;53.714;11.372;2023-05-24T02:05:57;16.73;;;4.43;;
61785;SDS011;47692;53.714;11.372;2023-05-24T02:08:23;23.58;;;3.95;;
61785;SDS011;47692;53.714;11.372;2023-05-24T02:10:48;25.48;;;4.70;;
61785;SDS011;47692;53.714;11.372;2023-05-24T02:13:13;23.95;;;4.70;;
61785;SDS011;47692;53.714;11.372;2023-05-24T02:15:41;25.58;;;4.90;;
61785;SDS011;47692;53.714;11.372;2023-05-24T02:18:08;19.90;;;4.28;;
61785;SDS011;47692;53.714;11.372;2023-05-24T02:20:35;31.30;;;4.88;;
61785;SDS011;47692;53.714;11.372;2023-05-24T02:23:01;17.42;;;3.55;;
61785;SDS011;47692;53.714;11.372;2023-05-24T02:25:30;20.17;;;5.40;;
61785;SDS011;47692;53.714;11.372;2023-05-24T02:27:56;19.98;;;4.80;;
61785;SDS011;47692;53.714;11.372;2023-05-24T02:30:22;23.25;;;4.70;;
61785;SDS011;47692;53.714;11.372;2023-05-24T02:32:48;24.98;;;4.43;;
61785;SDS011;47692;53.714;11.372;2023-05-24T02:35:13;19.75;;;4.32;;
61785;SDS011;47692;53.714;11.372;2023-05-24T02:37:38;22.92;;;4.30;;
61785;SDS011;47692;53.714;11.372;2023-05-24T02:40:04;21.83;;;4.43;;
61785;SDS011;47692;53.714;11.372;2023-05-24T02:42:30;21.35;;;4.45;;
61785;SDS011;47692;53.714;11.372;2023-05-24T02:44:56;22.20;;;4.25;;
61785;SDS011;47692;53.714;11.372;2023-05-24T02:47:21;30.25;;;5.63;;
61785;SDS011;47692;53.714;11.372;2023-05-24T02:49:46;20.48;;;3.85;;
61785;SDS011;47692;53.714;11.372;2023-05-24T02:52:11;24.42;;;5.05;;
61785;SDS011;47692;53.714;11.372;2023-05-24T02:54:37;21.27;;;4.30;;
61785;SDS011;47692;53.714;11.372;2023-05-24T02:57:03;22.15;;;4.22;;
61785;SDS011;47692;53.714;11.372;2023-05-24T02:59:30;21.80;;;4.35;;
61785;SDS011;47692;53.714;11.372;2023-05-24T03:01:56;14.75;;;4.15;;
61785;SDS011;47692;53.714;11.372;2023-05-24T03:04:21;22.10;;;4.68;;
61785;SDS011;47692;53.714;11.372;2023-05-24T03:06:47;21.05;;;4.53;;
61785;SDS011;47692;53.714;11.372;2023-05-24T03:09:12;17.45;;;4.03;;
61785;SDS011;47692;53.714;11.372;2023-05-24T03:11:37;23.98;;;4.82;;
61785;SDS011;47692;53.714;11.372;2023-05-24T03:14:03;18.83;;;5.00;;
61785;SDS011;47692;53.714;11.372;2023-05-24T03:16:30;27.25;;;4.47;;
61785;SDS011;47692;53.714;11.372;2023-05-24T03:18:55;30.75;;;4.68;;
61785;SDS011;47692;53.714;11.372;2023-05-24T03:21:21;22.52;;;4.32;;
61785;SDS011;47692;53.714;11.372;2023-05-24T03:23:47;21.10;;;4.85;;
61785;SDS011;47692;53.714;11.372;2023-05-24T03:26:13;24.70;;;4.55;;
61785;SDS011;47692;53.714;11.372;2023-05-24T03:28:38;21.65;;;4.57;;
61785;SDS011;47692;53.714;11.372;2023-05-24T03:31:04;21.58;;;4.72;;
61785;SDS011;47692;53.714;11.372;2023-05-24T03:33:30;24.23;;;5.85;;
61785;SDS011;47692;53.714;11.372;2023-05-24T03:35:56;20.02;;;5.10;;
61785;SDS011;47692;53.714;11.372;2023-05-24T03:38:21;22.83;;;4.43;;
61785;SDS011;47692;53.714;11.372;2023-05-24T03:40:46;23.52;;;4.38;;
61785;SDS011;47692;53.714;11.372;2023-05-24T03:43:11;31.63;;;5.40;;
61785;SDS011;47692;53.714;11.372;2023-05-24T03:45:37;22.60;;;4.88;;
61785;SDS011;47692;53.714;11.372;2023-05-24T03:48:02;21.90;;;4.85;;
61785;SDS011;47692;53.714;11.372;2023-05-24T03:50:27;17.80;;;4.00;;
61785;SDS011;47692;53.714;11.372;2023-05-24T03:52:53;20.35;;;3.83;;
61785;SDS011;47692;53.714;11.372;2023-05-24T03:55:18;21.50;;;4.05;;
61785;SDS011;47692;53.714;11.372;2023-05-24T03:57:43;25.83;;;4.78;;
61785;SDS011;47692;53.714;11.372;2023-05-24T04:00:09;22.95;;;4.82;;
61785;SDS011;47692;53.714;11.372;2023-05-24T04:02:36;30.02;;;5.07;;
61785;SDS011;47692;53.714;11.372;2023-05-24T04:05:05;30.90;;;5.10;;
61785;SDS011;47692;53.714;11.372;2023-05-24T04:07:34;16.75;;;3.97;;
61785;SDS011;47692;53.714;11.372;2023-05-24T04:10:01;23.70;;;4.82;;
61785;SDS011;47692;53.714;11.372;2023-05-24T04:12:30;27.00;;;5.60;;
61785;SDS011;47692;53.714;11.372;2023-05-24T04:14:56;23.05;;;4.60;;
61785;SDS011;47692;53.714;11.372;2023-05-24T04:17:21;32.75;;;5.93;;
61785;SDS011;47692;53.714;11.372;2023-05-24T04:19:48;25.17;;;4.30;;
61785;SDS011;47692;53.714;11.372;2023-05-24T04:22:14;24.17;;;4.55;;
61785;SDS011;47692;53.714;11.372;2023-05-24T04:24:39;21.88;;;5.25;;
61785;SDS011;47692;53.714;11.372;2023-05-24T04:27:05;23.73;;;4.72;;
61785;SDS011;47692;53.714;11.372;2023-05-24T04:29:31;17.88;;;4.30;;
61785;SDS011;47692;53.714;11.372;2023-05-24T04:31:57;20.30;;;4.85;;
61785;SDS011;47692;53.714;11.372;2023-05-24T04:34:27;25.52;;;5.07;;
61785;SDS011;47692;53.714;11.372;2023-05-24T04:36:54;20.60;;;5.43;;
61785;SDS011;47692;53.714;11.372;2023-05-24T04:39:19;21.95;;;4.50;;
61785;SDS011;47692;53.714;11.372;2023-05-24T04:41:45;22.30;;;4.78;;
61785;SDS011;47692;53.714;11.372;2023-05-24T04:44:10;22.15;;;4.78;;
61785;SDS011;47692;53.714;11.372;2023-05-24T04:46:35;18.13;;;4.60;;
61785;SDS011;47692;53.714;11.372;2023-05-24T04:49:01;19.52;;;4.57;;
61785;SDS011;47692;53.714;11.372;2023-05-24T04:51:26;26.00;;;4.70;;
61785;SDS011;47692;53.714;11.372;2023-05-24T04:53:51;24.65;;;4.68;;
61785;SDS011;47692;53.714;11.372;2023-05-24T04:56:17;20.95;;;4.30;;
61785;SDS011;47692;53.714;11.372;2023-05-24T04:58:43;23.23;;;5.30;;
61785;SDS011;47692;53.714;11.372;2023-05-24T05:01:08;30.83;;;5.78;;
61785;SDS011;47692;53.714;11.372;2023-05-24T05:03:34;26.02;;;5.57;;
61785;SDS011;47692;53.714;11.372;2023-05-24T05:05:59;17.20;;;4.95;;
61785;SDS011;47692;53.714;11.372;2023-05-24T05:08:25;19.95;;;4.40;;
61785;SDS011;47692;53.714;11.372;2023-05-24T05:10:50;21.80;;;4.60;;
61785;SDS011;47692;53.714;11.372;2023-05-24T05:13:15;21.90;;;4.45;;
61785;SDS011;47692;53.714;11.372;2023-05-24T05:15:41;24.88;;;6.55;;
61785;SDS011;47692;53.714;11.372;2023-05-24T05:18:06;23.40;;;5.95;;
61785;SDS011;47692;53.714;11.372;2023-05-24T05:20:32;24.15;;;4.40;;
61785;SDS011;47692;53.714;11.372;2023-05-24T05:22:57;19.45;;;4.57;;
61785;SDS011;47692;53.714;11.372;2023-05-24T05:25:23;19.75;;;4.22;;
61785;SDS011;47692;53.714;11.372;2023-05-24T05:27:48;30.85;;;5.50;;
61785;SDS011;47692;53.714;11.372;2023-05-24T05:30:14;17.95;;;4.35;;
61785;SDS011;47692;53.714;11.372;2023-05-24T05:32:39;26.58;;;5.75;;
61785;SDS011;47692;53.714;11.372;2023-05-24T05:35:04;20.33;;;4.32;;
61785;SDS011;47692;53.714;11.372;2023-05-24T05:37:30;27.58;;;4.93;;
61785;SDS011;47692;53.714;11.372;2023-05-24T05:39:55;21.27;;;5.10;;
61785;SDS011;47692;53.714;11.372;2023-05-24T05:42:21;26.52;;;5.15;;
61785;SDS011;47692;53.714;11.372;2023-05-24T05:44:46;23.05;;;6.03;;
61785;SDS011;47692;53.714;11.372;2023-05-24T05:47:12;21.45;;;4.35;;
61785;SDS011;47692;53.714;11.372;2023-05-24T05:49:37;20.77;;;5.18;;
61785;SDS011;47692;53.714;11.372;2023-05-24T05:52:05;17.42;;;4.82;;
61785;SDS011;47692;53.714;11.372;2023-05-24T05:54:30;21.73;;;5.05;;
61785;SDS011;47692;53.714;11.372;2023-05-24T05:56:56;21.10;;;4.88;;
61785;SDS011;47692;53.714;11.372;2023-05-24T05:59:22;35.22;;;5.25;;
61785;SDS011;47692;53.714;11.372;2023-05-24T06:01:47;26.30;;;5.25;;
61785;SDS011;47692;53.714;11.372;2023-05-24T06:04:16;30.80;;;5.82;;
61785;SDS011;47692;53.714;11.372;2023-05-24T06:06:42;18.58;;;4.43;;
61785;SDS011;47692;53.714;11.372;2023-05-24T06:09:09;23.95;;;5.70;;
61785;SDS011;47692;53.714;11.372;2023-05-24T06:11:35;23.58;;;4.72;;
61785;SDS011;47692;53.714;11.372;2023-05-24T06:14:00;33.08;;;5.70;;
61785;SDS011;47692;53.714;11.372;2023-05-24T06:16:26;22.33;;;5.82;;
61785;SDS011;47692;53.714;11.372;2023-05-24T06:18:52;29.40;;;6.55;;
61785;SDS011;47692;53.714;11.372;2023-05-24T06:21:18;22.00;;;4.80;;
61785;SDS011;47692;53.714;11.372;2023-05-24T06:23:44;26.17;;;5.85;;
61785;SDS011;47692;53.714;11.372;2023-05-24T06:26:09;24.85;;;4.53;;
61785;SDS011;47692;53.714;11.372;2023-05-24T06:28:35;22.27;;;4.57;;
61785;SDS011;47692;53.714;11.372;2023-05-24T06:31:00;28.73;;;5.82;;
61785;SDS011;47692;53.714;11.372;2023-05-24T06:33:27;25.60;;;6.40;;
61785;SDS011;47692;53.714;11.372;2023-05-24T06:35:52;27.45;;;5.82;;
61785;SDS011;47692;53.714;11.372;2023-05-24T06:38:18;26.13;;;4.82;;
61785;SDS011;47692;53.714;11.372;2023-05-24T06:40:43;20.83;;;5.05;;
61785;SDS011;47692;53.714;11.372;2023-05-24T06:43:08;22.67;;;5.25;;
61785;SDS011;47692;53.714;11.372;2023-05-24T06:45:34;31.33;;;5.55;;
61785;SDS011;47692;53.714;11.372;2023-05-24T06:48:00;26.35;;;5.30;;
61785;SDS011;47692;53.714;11.372;2023-05-24T06:50:25;23.95;;;6.05;;
61785;SDS011;47692;53.714;11.372;2023-05-24T06:52:51;22.60;;;5.07;;
61785;SDS011;47692;53.714;11.372;2023-05-24T06:55:16;24.83;;;5.47;;
61785;SDS011;47692;53.714;11.372;2023-05-24T06:57:42;27.55;;;5.30;;
61785;SDS011;47692;53.714;11.372;2023-05-24T07:00:07;26.33;;;5.93;;
61785;SDS011;47692;53.714;11.372;2023-05-24T07:02:35;22.45;;;4.90;;
61785;SDS011;47692;53.714;11.372;2023-05-24T07:05:00;20.15;;;5.93;;
61785;SDS011;47692;53.714;11.372;2023-05-24T07:07:26;20.33;;;4.95;;
61785;SDS011;47692;53.714;11.372;2023-05-24T07:09:51;21.35;;;4.97;;
61785;SDS011;47692;53.714;11.372;2023-05-24T07:12:16;17.27;;;5.30;;
61785;SDS011;47692;53.714;11.372;2023-05-24T07:14:42;24.92;;;4.88;;
61785;SDS011;47692;53.714;11.372;2023-05-24T07:17:07;19.05;;;4.63;;
61785;SDS011;47692;53.714;11.372;2023-05-24T07:19:33;19.48;;;4.35;;
61785;SDS011;47692;53.714;11.372;2023-05-24T07:21:59;23.17;;;4.97;;
61785;SDS011;47692;53.714;11.372;2023-05-24T07:24:25;17.52;;;4.15;;
61785;SDS011;47692;53.714;11.372;2023-05-24T07:26:50;22.55;;;4.68;;
61785;SDS011;47692;53.714;11.372;2023-05-24T07:29:17;20.52;;;4.68;;
61785;SDS011;47692;53.714;11.372;2023-05-24T07:31:43;22.70;;;5.38;;
61785;SDS011;47692;53.714;11.372;2023-05-24T07:34:08;23.92;;;4.75;;
61785;SDS011;47692;53.714;11.372;2023-05-24T07:36:34;20.85;;;4.80;;
61785;SDS011;47692;53.714;11.372;2023-05-24T07:38:59;17.17;;;3.92;;
61785;SDS011;47692;53.714;11.372;2023-05-24T07:41:25;22.00;;;4.63;;
61785;SDS011;47692;53.714;11.372;2023-05-24T07:43:52;17.80;;;4.38;;
61785;SDS011;47692;53.714;11.372;2023-05-24T07:46:20;23.65;;;4.10;;
61785;SDS011;47692;53.714;11.372;2023-05-24T07:48:45;18.85;;;4.68;;
61785;SDS011;47692;53.714;11.372;2023-05-24T07:51:11;16.38;;;3.85;;
61785;SDS011;47692;53.714;11.372;2023-05-24T07:53:36;16.33;;;3.72;;
61785;SDS011;47692;53.714;11.372;2023-05-24T07:56:02;14.95;;;3.63;;
61785;SDS011;47692;53.714;11.372;2023-05-24T07:58:27;18.13;;;3.72;;
61785;SDS011;47692;53.714;11.372;2023-05-24T08:00:53;16.13;;;4.13;;
61785;SDS011;47692;53.714;11.372;2023-05-24T08:03:18;21.23;;;3.70;;
61785;SDS011;47692;53.714;11.372;2023-05-24T08:05:43;12.32;;;3.72;;
61785;SDS011;47692;53.714;11.372;2023-05-24T08:08:09;18.52;;;3.55;;
61785;SDS011;47692;53.714;11.372;2023-05-24T08:10:34;13.38;;;3.10;;
61785;SDS011;47692;53.714;11.372;2023-05-24T08:13:00;12.90;;;3.65;;
61785;SDS011;47692;53.714;11.372;2023-05-24T08:15:27;12.52;;;2.95;;
61785;SDS011;47692;53.714;11.372;2023-05-24T08:17:53;13.18;;;3.53;;
61785;SDS011;47692;53.714;11.372;2023-05-24T08:20:18;18.58;;;3.65;;
61785;SDS011;47692;53.714;11.372;2023-05-24T08:22:44;9.20;;;2.47;;
61785;SDS011;47692;53.714;11.372;2023-05-24T08:25:12;15.63;;;3.22;;
61785;SDS011;47692;53.714;11.372;2023-05-24T08:27:37;13.65;;;2.42;;
61785;SDS011;47692;53.714;11.372;2023-05-24T08:30:03;15.38;;;3.35;;
61785;SDS011;47692;53.714;11.372;2023-05-24T08:32:29;15.57;;;2.75;;
61785;SDS011;47692;53.714;11.372;2023-05-24T08:34:54;15.70;;;3.00;;
61785;SDS011;47692;53.714;11.372;2023-05-24T08:37:20;10.73;;;2.58;;
61785;SDS011;47692;53.714;11.372;2023-05-24T08:39:46;11.40;;;3.00;;
61785;SDS011;47692;53.714;11.372;2023-05-24T08:42:12;10.80;;;2.63;;
61785;SDS011;47692;53.714;11.372;2023-05-24T08:44:40;14.45;;;2.95;;
61785;SDS011;47692;53.714;11.372;2023-05-24T08:47:16;10.88;;;2.85;;
61785;SDS011;47692;53.714;11.372;2023-05-24T08:49:44;10.85;;;2.95;;
61785;SDS011;47692;53.714;11.372;2023-05-24T08:52:11;13.10;;;3.97;;
61785;SDS011;47692;53.714;11.372;2023-05-24T08:54:37;12.63;;;3.10;;
61785;SDS011;47692;53.714;11.372;2023-05-24T08:57:04;13.27;;;3.15;;
61785;SDS011;47692;53.714;11.372;2023-05-24T08:59:31;10.45;;;2.90;;
61785;SDS011;47692;53.714;11.372;2023-05-24T09:01:56;11.88;;;3.75;;
61785;SDS011;47692;53.714;11.372;2023-05-24T09:04:25;15.55;;;3.25;;
61785;SDS011;47692;53.714;11.372;2023-05-24T09:06:51;15.93;;;3.08;;
61785;SDS011;47692;53.714;11.372;2023-05-24T09:09:19;13.13;;;3.20;;
61785;SDS011;47692;53.714;11.372;2023-05-24T09:11:46;11.50;;;2.90;;
61785;SDS011;47692;53.714;11.372;2023-05-24T09:14:15;12.68;;;3.55;;
61785;SDS011;47692;53.714;11.372;2023-05-24T09:16:41;13.73;;;3.30;;
61785;SDS011;47692;53.714;11.372;2023-05-24T09:19:08;13.55;;;3.10;;
61785;SDS011;47692;53.714;11.372;2023-05-24T09:21:33;14.38;;;3.90;;
61785;SDS011;47692;53.714;11.372;2023-05-24T09:23:59;14.48;;;2.88;;
61785;SDS011;47692;53.714;11.372;2023-05-24T09:26:26;11.05;;;3.33;;
61785;SDS011;47692;53.714;11.372;2023-05-24T09:28:54;13.82;;;3.08;;
61785;SDS011;47692;53.714;11.372;2023-05-24T09:31:30;15.75;;;3.03;;
61785;SDS011;47692;53.714;11.372;2023-05-24T09:33:57;12.57;;;3.10;;
61785;SDS011;47692;53.714;11.372;2023-05-24T09:36:22;14.50;;;3.00;;
61785;SDS011;47692;53.714;11.372;2023-05-24T09:38:48;16.00;;;4.25;;
61785;SDS011;47692;53.714;11.372;2023-05-24T09:41:14;12.57;;;3.38;;
61785;SDS011;47692;53.714;11.372;2023-05-24T09:43:46;10.80;;;3.08;;
61785;SDS011;47692;53.714;11.372;2023-05-24T09:46:16;18.15;;;3.30;;
61785;SDS011;47692;53.714;11.372;2023-05-24T09:48:56;15.70;;;3.78;;
61785;SDS011;47692;53.714;11.372;2023-05-24T09:51:23;12.32;;;3.00;;
61785;SDS011;47692;53.714;11.372;2023-05-24T09:53:48;15.38;;;3.50;;
61785;SDS011;47692;53.714;11.372;2023-05-24T09:56:16;16.80;;;3.47;;
61785;SDS011;47692;53.714;11.372;2023-05-24T09:58:42;16.60;;;3.97;;
61785;SDS011;47692;53.714;11.372;2023-05-24T10:01:09;12.38;;;3.10;;
61785;SDS011;47692;53.714;11.372;2023-05-24T10:03:36;7.97;;;3.05;;
61785;SDS011;47692;53.714;11.372;2023-05-24T10:06:05;14.73;;;3.58;;
61785;SDS011;47692;53.714;11.372;2023-05-24T10:08:33;13.10;;;3.30;;
61785;SDS011;47692;53.714;11.372;2023-05-24T10:11:01;13.13;;;3.05;;
61785;SDS011;47692;53.714;11.372;2023-05-24T10:13:28;10.90;;;3.35;;
61785;SDS011;47692;53.714;11.372;2023-05-24T10:15:55;14.77;;;3.28;;
61785;SDS011;47692;53.714;11.372;2023-05-24T10:18:21;10.88;;;3.00;;
61785;SDS011;47692;53.714;11.372;2023-05-24T10:20:46;12.07;;;3.13;;
61785;SDS011;47692;53.714;11.372;2023-05-24T10:23:14;15.25;;;3.38;;
61785;SDS011;47692;53.714;11.372;2023-05-24T10:25:45;11.68;;;3.15;;
61785;SDS011;47692;53.714;11.372;2023-05-24T10:28:15;15.95;;;3.33;;
61785;SDS011;47692;53.714;11.372;2023-05-24T10:33:37;14.07;;;2.80;;
61785;SDS011;47692;53.714;11.372;2023-05-24T10:36:05;9.35;;;2.63;;
61785;SDS011;47692;53.714;11.372;2023-05-24T10:38:33;13.73;;;2.70;;
61785;SDS011;47692;53.714;11.372;2023-05-24T10:41:03;9.70;;;3.10;;
61785;SDS011;47692;53.714;11.372;2023-05-24T10:43:30;7.00;;;2.42;;
61785;SDS011;47692;53.714;11.372;2023-05-24T10:45:55;11.15;;;2.97;;
61785;SDS011;47692;53.714;11.372;2023-05-24T10:48:30;16.67;;;3.40;;
61785;SDS011;47692;53.714;11.372;2023-05-24T10:50:56;15.23;;;3.08;;
61785;SDS011;47692;53.714;11.372;2023-05-24T10:53:26;9.52;;;2.47;;
61785;SDS011;47692;53.714;11.372;2023-05-24T10:58:17;11.77;;;2.95;;
61785;SDS011;47692;53.714;11.372;2023-05-24T11:00:43;12.10;;;3.10;;
61785;SDS011;47692;53.714;11.372;2023-05-24T11:03:08;10.00;;;2.80;;
61785;SDS011;47692;53.714;11.372;2023-05-24T11:05:35;13.65;;;3.30;;
61785;SDS011;47692;53.714;11.372;2023-05-24T11:08:14;9.05;;;2.60;;
61785;SDS011;47692;53.714;11.372;2023-05-24T11:11:01;9.07;;;2.80;;
61785;SDS011;47692;53.714;11.372;2023-05-24T11:13:28;10.77;;;3.03;;
61785;SDS011;47692;53.714;11.372;2023-05-24T11:15:55;10.43;;;2.90;;
61785;SDS011;47692;53.714;11.372;2023-05-24T11:18:21;14.15;;;3.53;;
61785;SDS011;47692;53.714;11.372;2023-05-24T11:20:47;13.82;;;3.60;;
61785;SDS011;47692;53.714;11.372;2023-05-24T11:23:14;13.82;;;3.35;;
61785;SDS011;47692;53.714;11.372;2023-05-24T11:25:40;12.68;;;3.95;;
61785;SDS011;47692;53.714;11.372;2023-05-24T11:28:09;14.57;;;2.92;;
61785;SDS011;47692;53.714;11.372;2023-05-24T11:30:39;12.73;;;3.35;;
61785;SDS011;47692;53.714;11.372;2023-05-24T11:33:04;15.30;;;3.50;;
61785;SDS011;47692;53.714;11.372;2023-05-24T11:35:37;8.35;;;2.90;;
61785;SDS011;47692;53.714;11.372;2023-05-24T11:38:03;10.90;;;3.25;;
61785;SDS011;47692;53.714;11.372;2023-05-24T11:40:34;9.90;;;3.33;;
61785;SDS011;47692;53.714;11.372;2023-05-24T11:42:59;9.00;;;2.88;;
61785;SDS011;47692;53.714;11.372;2023-05-24T11:45:25;12.80;;;2.92;;
61785;SDS011;47692;53.714;11.372;2023-05-24T11:47:54;8.23;;;2.85;;
61785;SDS011;47692;53.714;11.372;2023-05-24T11:50:22;11.00;;;2.65;;
61785;SDS011;47692;53.714;11.372;2023-05-24T11:52:48;11.07;;;3.08;;
61785;SDS011;47692;53.714;11.372;2023-05-24T11:55:13;12.75;;;3.33;;
61785;SDS011;47692;53.714;11.372;2023-05-24T11:57:41;14.20;;;3.88;;
61785;SDS011;47692;53.714;11.372;2023-05-24T12:00:22;12.77;;;2.83;;
61785;SDS011;47692;53.714;11.372;2023-05-24T12:02:48;11.75;;;2.92;;
61785;SDS011;47692;53.714;11.372;2023-05-24T12:05:17;8.85;;;2.83;;
61785;SDS011;47692;53.714;11.372;2023-05-24T12:07:42;9.32;;;2.88;;
61785;SDS011;47692;53.714;11.372;2023-05-24T12:10:12;9.73;;;2.63;;
61785;SDS011;47692;53.714;11.372;2023-05-24T12:12:43;9.13;;;2.78;;
61785;SDS011;47692;53.714;11.372;2023-05-24T12:15:09;8.00;;;3.00;;
61785;SDS011;47692;53.714;11.372;2023-05-24T12:17:35;11.95;;;3.25;;
61785;SDS011;47692;53.714;11.372;2023-05-24T12:20:01;10.05;;;2.70;;
61785;SDS011;47692;53.714;11.372;2023-05-24T12:22:27;7.95;;;2.72;;
61785;SDS011;47692;53.714;11.372;2023-05-24T12:24:55;11.35;;;3.05;;
61785;SDS011;47692;53.714;11.372;2023-05-24T12:27:24;9.57;;;2.70;;
61785;SDS011;47692;53.714;11.372;2023-05-24T12:29:51;11.10;;;3.83;;
61785;SDS011;47692;53.714;11.372;2023-05-24T12:32:16;12.60;;;3.75;;
61785;SDS011;47692;53.714;11.372;2023-05-24T12:34:43;11.65;;;3.10;;
61785;SDS011;47692;53.714;11.372;2023-05-24T12:37:09;11.02;;;2.97;;
61785;SDS011;47692;53.714;11.372;2023-05-24T12:39:36;9.30;;;2.50;;
61785;SDS011;47692;53.714;11.372;2023-05-24T12:42:02;12.68;;;2.90;;
61785;SDS011;47692;53.714;11.372;2023-05-24T12:44:32;8.73;;;2.85;;
61785;SDS011;47692;53.714;11.372;2023-05-24T12:47:00;9.23;;;2.90;;
61785;SDS011;47692;53.714;11.372;2023-05-24T12:49:26;9.07;;;2.30;;
61785;SDS011;47692;53.714;11.372;2023-05-24T12:51:52;8.90;;;2.40;;
61785;SDS011;47692;53.714;11.372;2023-05-24T12:54:18;6.72;;;2.63;;
61785;SDS011;47692;53.714;11.372;2023-05-24T12:56:46;12.85;;;3.20;;
61785;SDS011;47692;53.714;11.372;2023-05-24T12:59:11;8.50;;;2.40;;
61785;SDS011;47692;53.714;11.372;2023-05-24T13:01:36;9.50;;;2.92;;
61785;SDS011;47692;53.714;11.372;2023-05-24T13:04:02;11.15;;;2.97;;
61785;SDS011;47692;53.714;11.372;2023-05-24T13:06:27;10.80;;;2.72;;
61785;SDS011;47692;53.714;11.372;2023-05-24T13:08:53;13.70;;;2.90;;
61785;SDS011;47692;53.714;11.372;2023-05-24T13:11:18;8.15;;;2.70;;
61785;SDS011;47692;53.714;11.372;2023-05-24T13:13:43;8.18;;;2.72;;
61785;SDS011;47692;53.714;11.372;2023-05-24T13:16:09;7.15;;;2.20;;
61785;SDS011;47692;53.714;11.372;2023-05-24T13:18:35;9.43;;;2.70;;
61785;SDS011;47692;53.714;11.372;2023-05-24T13:21:02;9.85;;;3.30;;
61785;SDS011;47692;53.714;11.372;2023-05-24T13:23:29;12.88;;;3.38;;
61785;SDS011;47692;53.714;11.372;2023-05-24T13:25:55;10.98;;;3.00;;
61785;SDS011;47692;53.714;11.372;2023-05-24T13:28:21;6.88;;;2.65;;
61785;SDS011;47692;53.714;11.372;2023-05-24T13:30:46;11.57;;;3.50;;
61785;SDS011;47692;53.714;11.372;2023-05-24T13:33:12;12.27;;;2.78;;
61785;SDS011;47692;53.714;11.372;2023-05-24T13:35:38;8.88;;;2.75;;
61785;SDS011;47692;53.714;11.372;2023-05-24T13:38:03;9.13;;;2.97;;
61785;SDS011;47692;53.714;11.372;2023-05-24T13:40:29;11.77;;;3.38;;
61785;SDS011;47692;53.714;11.372;2023-05-24T13:42:55;10.38;;;3.17;;
61785;SDS011;47692;53.714;11.372;2023-05-24T13:45:21;9.30;;;2.50;;
61785;SDS011;47692;53.714;11.372;2023-05-24T13:47:47;10.45;;;2.80;;
61785;SDS011;47692;53.714;11.372;2023-05-24T13:50:12;9.68;;;2.70;;
61785;SDS011;47692;53.714;11.372;2023-05-24T13:52:38;7.47;;;2.40;;
61785;SDS011;47692;53.714;11.372;2023-05-24T13:55:03;6.90;;;2.35;;
61785;SDS011;47692;53.714;11.372;2023-05-24T13:57:29;9.93;;;2.58;;
61785;SDS011;47692;53.714;11.372;2023-05-24T13:59:56;7.00;;;2.38;;
61785;SDS011;47692;53.714;11.372;2023-05-24T14:02:23;8.30;;;2.65;;
61785;SDS011;47692;53.714;11.372;2023-05-24T14:04:48;10.57;;;2.50;;
61785;SDS011;47692;53.714;11.372;2023-05-24T14:07:13;9.60;;;2.38;;
61785;SDS011;47692;53.714;11.372;2023-05-24T14:09:39;6.70;;;2.08;;
61785;SDS011;47692;53.714;11.372;2023-05-24T14:12:06;9.35;;;2.20;;
61785;SDS011;47692;53.714;11.372;2023-05-24T14:14:32;6.07;;;2.20;;
61785;SDS011;47692;53.714;11.372;2023-05-24T14:16:58;7.35;;;2.58;;
61785;SDS011;47692;53.714;11.372;2023-05-24T14:19:23;6.95;;;3.08;;
61785;SDS011;47692;53.714;11.372;2023-05-24T14:21:48;8.48;;;2.20;;
61785;SDS011;47692;53.714;11.372;2023-05-24T14:24:14;8.32;;;2.53;;
61785;SDS011;47692;53.714;11.372;2023-05-24T14:26:39;7.00;;;1.98;;
61785;SDS011;47692;53.714;11.372;2023-05-24T14:29:06;5.55;;;2.03;;
61785;SDS011;47692;53.714;11.372;2023-05-24T14:31:32;4.63;;;2.00;;